createdAt,value
2019-03-18T00:02:36.163Z,98.70
2019-03-18T00:05:40.591Z,98.50
2019-03-18T00:08:45.019Z,98.70
2019-03-18T00:11:52.048Z,98.50
2019-03-18T00:15:01.337Z,98.70
2019-03-18T00:18:02.849Z,98.60
2019-03-18T00:21:07.286Z,99.10
2019-03-18T00:24:11.712Z,99.00
2019-03-18T00:27:16.154Z,99.00
2019-03-18T00:30:21.423Z,98.80
2019-03-18T00:33:25.855Z,98.90
2019-03-18T00:36:30.519Z,98.80
2019-03-18T00:39:34.948Z,98.80
2019-03-18T00:42:39.385Z,98.90
2019-03-18T00:45:43.830Z,98.70
2019-03-18T00:48:48.256Z,98.70
2019-03-18T00:51:52.686Z,98.40
2019-03-18T00:54:57.442Z,98.80
2019-03-18T00:58:01.891Z,98.80
2019-03-18T01:01:06.603Z,98.90
2019-03-18T01:04:11.331Z,98.80
2019-03-18T01:07:15.850Z,98.90
2019-03-18T01:10:20.270Z,99.10
2019-03-18T01:13:24.709Z,99.10
2019-03-18T01:16:29.148Z,98.80
2019-03-18T01:19:33.855Z,98.70
2019-03-18T01:22:38.356Z,98.50
2019-03-18T01:25:43.108Z,98.60
2019-03-18T01:28:47.542Z,98.60
2019-03-18T01:31:51.991Z,98.40
2019-03-18T01:34:56.410Z,98.70
2019-03-18T01:38:01.117Z,99.00
2019-03-18T01:41:05.612Z,99.30
2019-03-18T01:44:10.047Z,99.00
2019-03-18T01:47:14.484Z,98.80
2019-03-18T01:50:18.913Z,98.90
2019-03-18T01:53:23.349Z,98.70
2019-03-18T01:56:28.060Z,98.70
2019-03-18T01:59:32.501Z,98.60
2019-03-18T02:02:36.951Z,98.70
2019-03-18T02:05:41.360Z,99.00
2019-03-18T02:08:46.121Z,99.10
2019-03-18T02:11:50.798Z,99.20
2019-03-18T02:14:55.221Z,99.30
2019-03-18T02:17:59.948Z,99.50
2019-03-18T02:21:04.374Z,99.50
2019-03-18T02:24:09.103Z,99.50
2019-03-18T02:27:13.836Z,99.50
2019-03-18T02:30:19.507Z,99.80
2019-03-18T02:33:23.944Z,99.90
2019-03-18T02:36:28.441Z,99.90
2019-03-18T02:39:32.878Z,99.90
2019-03-18T02:42:37.602Z,99.90
2019-03-18T02:45:42.331Z,99.90
2019-03-18T02:48:46.759Z,99.90
2019-03-18T02:51:53.039Z,99.90
2019-03-18T02:54:57.590Z,99.90
2019-03-18T02:58:02.274Z,99.90
2019-03-18T03:01:06.713Z,99.90
2019-03-18T03:04:11.376Z,99.90
2019-03-18T03:07:16.056Z,99.90
2019-03-18T03:10:20.579Z,99.90
2019-03-18T03:13:25.320Z,99.90
2019-03-18T03:16:29.733Z,99.90
2019-03-18T03:19:34.463Z,99.90
2019-03-18T03:22:38.889Z,99.90
2019-03-18T03:25:43.331Z,99.90
2019-03-18T03:28:47.770Z,99.90
2019-03-18T03:31:52.469Z,99.90
2019-03-18T03:34:56.910Z,99.90
2019-03-18T03:38:01.623Z,99.90
2019-03-18T03:41:06.117Z,99.90
2019-03-18T03:44:10.563Z,99.90
2019-03-18T03:47:14.975Z,99.90
2019-03-18T03:50:19.410Z,99.90
2019-03-18T03:53:24.149Z,99.90
2019-03-18T03:56:28.975Z,99.90
2019-03-18T03:59:33.417Z,99.90
2019-03-18T04:02:37.852Z,99.90
2019-03-18T04:05:42.558Z,99.90
2019-03-18T04:08:47.260Z,99.90
2019-03-18T04:11:51.698Z,99.90
2019-03-18T04:14:56.447Z,99.90
2019-03-18T04:18:01.184Z,99.90
2019-03-18T04:21:05.901Z,99.90
2019-03-18T04:24:10.639Z,99.90
2019-03-18T04:27:15.368Z,99.90
2019-03-18T04:30:19.817Z,99.90
2019-03-18T04:33:24.517Z,99.90
2019-03-18T04:36:28.955Z,99.90
2019-03-18T04:39:33.393Z,99.90
2019-03-18T04:42:38.093Z,99.90
2019-03-18T04:45:42.932Z,99.90
2019-03-18T04:48:47.663Z,99.90
2019-03-18T04:51:52.398Z,99.90
2019-03-18T04:54:56.831Z,99.90
2019-03-18T04:58:01.259Z,99.90
2019-03-18T05:01:05.768Z,99.90
2019-03-18T05:04:10.501Z,99.90
2019-03-18T05:07:14.928Z,99.90
2019-03-18T05:10:19.655Z,99.90
2019-03-18T05:13:26.501Z,99.90
2019-03-18T05:16:30.857Z,99.90
2019-03-18T05:19:35.582Z,99.90
2019-03-18T05:22:40.243Z,99.90
2019-03-18T05:25:44.947Z,99.90
2019-03-18T05:28:49.674Z,99.90
2019-03-18T05:31:54.119Z,99.90
2019-03-18T05:34:58.551Z,99.90
2019-03-18T05:38:02.983Z,99.90
2019-03-18T05:41:07.416Z,99.90
2019-03-18T05:44:12.107Z,99.90
2019-03-18T05:47:16.541Z,99.90
2019-03-18T05:50:20.973Z,99.90
2019-03-18T05:53:25.674Z,99.90
2019-03-18T05:56:30.106Z,99.90
2019-03-18T05:59:34.835Z,99.90
2019-03-18T06:02:39.558Z,99.90
2019-03-18T06:05:43.996Z,99.90
2019-03-18T06:08:48.721Z,99.90
2019-03-18T06:11:53.167Z,99.90
2019-03-18T06:14:57.871Z,99.90
2019-03-18T06:18:02.602Z,99.90
2019-03-18T06:21:07.326Z,99.90
2019-03-18T06:24:12.059Z,99.90
2019-03-18T06:27:16.498Z,99.90
2019-03-18T06:30:21.208Z,99.90
2019-03-18T06:33:25.946Z,99.90
2019-03-18T06:36:49.719Z,99.90
2019-03-18T06:39:54.452Z,99.90
2019-03-18T06:42:59.188Z,99.90
2019-03-18T06:46:03.922Z,99.90
2019-03-18T06:49:08.759Z,99.90
2019-03-18T06:52:13.271Z,99.90
2019-03-18T06:55:18.003Z,99.90
2019-03-18T06:58:22.437Z,99.70
2019-03-18T07:01:26.869Z,99.60
2019-03-18T07:04:31.592Z,99.70
2019-03-18T07:07:36.019Z,99.90
2019-03-18T07:10:40.735Z,99.90
2019-03-18T07:13:45.166Z,99.70
2019-03-18T07:16:49.992Z,99.40
2019-03-18T07:19:54.416Z,99.90
2019-03-18T07:22:58.915Z,99.40
2019-03-18T07:26:03.354Z,99.00
2019-03-18T07:29:08.100Z,99.10
2019-03-18T07:32:12.830Z,99.00
2019-03-18T07:35:17.263Z,98.90
2019-03-18T07:38:21.697Z,99.00
2019-03-18T07:41:26.128Z,98.80
2019-03-18T07:44:30.547Z,99.00
2019-03-18T07:47:35.297Z,98.90
2019-03-18T07:50:39.727Z,98.70
2019-03-18T07:53:44.407Z,98.40
2019-03-18T07:56:49.137Z,98.90
2019-03-18T07:59:53.562Z,98.80
2019-03-18T08:02:57.996Z,98.60
2019-03-18T08:06:02.431Z,98.80
2019-03-18T08:09:08.676Z,98.90
2019-03-18T08:12:13.421Z,99.10
2019-03-18T08:15:17.839Z,99.20
2019-03-18T08:18:22.565Z,99.50
2019-03-18T08:21:27.008Z,99.50
2019-03-18T08:24:31.427Z,99.80
2019-03-18T08:27:35.941Z,99.30
2019-03-18T08:30:40.376Z,98.90
2019-03-18T08:33:45.088Z,99.10
2019-03-18T08:36:49.526Z,99.30
2019-03-18T08:39:53.952Z,99.30
2019-03-18T08:42:58.662Z,99.50
2019-03-18T08:46:03.093Z,99.30
2019-03-18T08:49:07.527Z,99.00
2019-03-18T08:52:11.971Z,98.70
2019-03-18T08:55:16.681Z,99.00
2019-03-18T08:58:22.729Z,98.90
2019-03-18T09:01:27.649Z,98.80
2019-03-18T09:04:32.259Z,97.90
2019-03-18T09:07:37.405Z,97.50
2019-03-18T09:10:42.542Z,97.60
2019-03-18T09:13:47.653Z,97.10
2019-03-18T09:16:52.666Z,96.40
2019-03-18T09:19:57.588Z,96.30
2019-03-18T09:23:02.285Z,96.30
2019-03-18T09:26:07.051Z,96.10
2019-03-18T09:29:11.493Z,96.20
2019-03-18T09:32:16.302Z,95.80
2019-03-18T09:35:20.737Z,96.10
2019-03-18T09:38:26.705Z,96.20
2019-03-18T09:41:31.161Z,95.90
2019-03-18T09:44:35.844Z,95.00
2019-03-18T09:47:40.285Z,95.00
2019-03-18T09:50:45.001Z,95.10
2019-03-18T09:53:49.435Z,94.60
2019-03-18T09:56:54.146Z,94.00
2019-03-18T09:59:58.570Z,94.20
2019-03-18T10:03:03.512Z,94.20
2019-03-18T10:06:08.259Z,93.40
2019-03-18T10:09:12.681Z,92.60
2019-03-18T10:12:17.425Z,92.30
2019-03-18T10:15:22.840Z,91.50
2019-03-18T10:18:27.285Z,92.90
2019-03-18T10:21:31.729Z,90.60
2019-03-18T10:24:36.167Z,90.10
2019-03-18T10:27:40.607Z,90.10
2019-03-18T10:30:45.047Z,91.00
2019-03-18T10:33:49.492Z,90.90
2019-03-18T10:36:53.922Z,91.40
2019-03-18T10:39:58.637Z,90.50
2019-03-18T10:43:03.377Z,91.00
2019-03-18T10:46:07.809Z,90.20
2019-03-18T10:49:12.530Z,87.30
2019-03-18T10:52:17.063Z,85.30
2019-03-18T10:55:21.883Z,83.40
2019-03-18T10:58:26.613Z,83.30
2019-03-18T11:01:31.344Z,83.00
2019-03-18T11:04:35.798Z,84.50
2019-03-18T11:07:40.302Z,83.30
2019-03-18T11:10:45.026Z,85.40
2019-03-18T11:13:49.759Z,82.50
2019-03-18T11:16:54.200Z,82.30
2019-03-18T11:19:59.158Z,81.80
2019-03-18T11:23:03.712Z,84.00
2019-03-18T11:26:08.482Z,84.70
2019-03-18T11:29:13.212Z,84.30
2019-03-18T11:32:17.950Z,78.60
2019-03-18T11:35:22.770Z,79.40
2019-03-18T11:38:27.281Z,77.10
2019-03-18T11:41:31.715Z,77.20
2019-03-18T11:44:36.158Z,77.50
2019-03-18T11:47:40.599Z,74.20
2019-03-18T11:50:45.300Z,76.80
2019-03-18T11:53:50.031Z,77.90
2019-03-18T11:56:54.762Z,76.30
2019-03-18T11:59:59.204Z,76.90
2019-03-18T12:03:03.915Z,76.00
2019-03-18T12:06:08.366Z,74.80
2019-03-18T12:09:12.809Z,76.40
2019-03-18T12:12:17.245Z,76.40
2019-03-18T12:15:24.976Z,76.50
2019-03-18T12:18:29.717Z,77.70
2019-03-18T12:21:34.450Z,79.30
2019-03-18T12:24:39.179Z,75.80
2019-03-18T12:27:43.908Z,74.40
2019-03-18T12:30:48.354Z,71.80
2019-03-18T12:33:53.069Z,71.80
2019-03-18T12:36:57.796Z,73.70
2019-03-18T12:40:02.239Z,75.50
2019-03-18T12:43:06.683Z,74.90
2019-03-18T12:46:11.379Z,76.20
2019-03-18T12:49:16.106Z,75.60
2019-03-18T12:52:20.947Z,79.50
2019-03-18T12:55:25.398Z,75.80
2019-03-18T12:58:30.098Z,75.90
2019-03-18T13:01:34.926Z,76.50
2019-03-18T13:04:39.655Z,80.30
2019-03-18T13:07:44.102Z,80.30
2019-03-18T13:10:48.814Z,77.20
2019-03-18T13:13:53.249Z,76.00
2019-03-18T13:16:57.704Z,76.20
2019-03-18T13:20:02.386Z,76.60
2019-03-18T13:23:06.823Z,77.90
2019-03-18T13:26:11.270Z,74.50
2019-03-18T13:29:15.972Z,75.10
2019-03-18T13:32:20.696Z,75.20
2019-03-18T13:35:25.424Z,75.10
2019-03-18T13:38:29.856Z,75.60
2019-03-18T13:41:34.295Z,76.10
2019-03-18T13:44:38.728Z,79.60
2019-03-18T13:47:43.181Z,77.00
2019-03-18T13:50:47.957Z,78.70
2019-03-18T13:53:52.688Z,79.60
2019-03-18T13:56:57.413Z,79.70
2019-03-18T14:00:01.856Z,79.70
2019-03-18T14:03:06.287Z,79.10
2019-03-18T14:06:10.994Z,80.60
2019-03-18T14:09:15.419Z,80.30
2019-03-18T14:12:20.146Z,82.70
2019-03-18T14:15:25.861Z,87.80
2019-03-18T14:18:30.632Z,92.60
2019-03-18T14:21:35.069Z,94.40
2019-03-18T14:24:39.500Z,96.20
2019-03-18T14:27:44.210Z,98.00
2019-03-18T14:30:48.641Z,99.20
2019-03-18T14:33:53.363Z,99.90
2019-03-18T14:36:57.795Z,99.90
2019-03-18T14:40:02.225Z,99.90
2019-03-18T14:43:06.736Z,99.90
2019-03-18T14:46:11.570Z,99.90
2019-03-18T14:49:16.298Z,99.50
2019-03-18T14:52:21.030Z,98.90
2019-03-18T14:55:25.837Z,98.60
2019-03-18T14:58:30.273Z,99.40
2019-03-18T15:01:34.720Z,98.90
2019-03-18T15:04:39.174Z,99.20
2019-03-18T15:07:43.576Z,99.00
2019-03-18T15:10:48.004Z,98.60
2019-03-18T15:13:52.444Z,98.60
2019-03-18T15:16:57.143Z,97.40
2019-03-18T15:20:01.875Z,96.40
2019-03-18T15:23:06.608Z,95.70
2019-03-18T15:26:11.332Z,95.10
2019-03-18T15:29:16.066Z,95.00
2019-03-18T15:32:20.503Z,95.10
2019-03-18T15:35:25.224Z,95.80
2019-03-18T15:38:29.665Z,95.20
2019-03-18T15:41:34.367Z,95.00
2019-03-18T15:44:38.805Z,94.80
2019-03-18T15:47:43.521Z,95.50
2019-03-18T15:50:48.250Z,95.40
2019-03-18T15:53:52.684Z,95.90
2019-03-18T15:56:57.408Z,95.40
2019-03-18T16:00:01.847Z,94.30
2019-03-18T16:03:06.563Z,92.80
2019-03-18T16:06:11.291Z,92.10
2019-03-18T16:09:15.725Z,92.70
2019-03-18T16:12:20.152Z,92.80
2019-03-18T16:15:24.582Z,92.00
2019-03-18T16:18:29.294Z,92.50
2019-03-18T16:21:33.726Z,92.50
2019-03-18T16:24:38.156Z,93.00
2019-03-18T16:27:42.597Z,93.40
2019-03-18T16:30:47.296Z,93.00
2019-03-18T16:33:52.028Z,93.10
2019-03-18T16:36:56.460Z,93.10
2019-03-18T16:40:00.899Z,93.70
2019-03-18T16:43:05.707Z,93.30
2019-03-18T16:46:10.134Z,93.10
2019-03-18T16:49:14.573Z,92.80
2019-03-18T16:52:19.004Z,92.50
2019-03-18T16:55:23.509Z,93.10
2019-03-18T16:58:28.239Z,93.20
2019-03-18T17:01:32.978Z,93.50
2019-03-18T17:04:37.454Z,93.90
2019-03-18T17:07:42.238Z,94.50
2019-03-18T17:10:47.055Z,95.30
2019-03-18T17:13:51.792Z,95.60
2019-03-18T17:16:56.212Z,95.90
2019-03-18T17:20:00.943Z,96.30
2019-03-18T17:23:05.389Z,96.30
2019-03-18T17:26:10.094Z,96.60
2019-03-18T17:29:14.554Z,96.90
2019-03-18T17:32:20.378Z,97.30
2019-03-18T17:35:25.111Z,98.20
2019-03-18T17:38:29.770Z,98.80
2019-03-18T17:41:34.198Z,99.50
2019-03-18T17:44:38.996Z,99.90
2019-03-18T17:47:43.735Z,99.90
2019-03-18T17:50:48.168Z,99.90
2019-03-18T17:53:52.986Z,99.90
2019-03-18T17:57:06.720Z,99.90
2019-03-18T18:00:06.330Z,99.90
2019-03-18T18:03:10.760Z,99.90
2019-03-18T18:06:15.199Z,99.90
2019-03-18T18:09:19.634Z,99.90
2019-03-18T18:12:24.331Z,99.90
2019-03-18T18:15:29.091Z,99.90
2019-03-18T18:18:33.791Z,99.90
2019-03-18T18:21:38.527Z,99.90
2019-03-18T18:24:43.274Z,99.90
2019-03-18T18:27:47.708Z,99.90
2019-03-18T18:30:52.414Z,99.90
2019-03-18T18:33:57.144Z,99.90
2019-03-18T18:37:01.872Z,99.90
2019-03-18T18:40:25.422Z,99.90
2019-03-18T18:43:29.871Z,99.90
2019-03-18T18:46:34.316Z,99.90
2019-03-18T18:49:39.027Z,99.90
2019-03-18T18:52:43.459Z,99.90
2019-03-18T18:55:48.194Z,99.90
2019-03-18T18:58:52.915Z,99.90
2019-03-18T19:01:57.642Z,99.90
2019-03-18T19:05:02.073Z,99.90
2019-03-18T19:08:06.798Z,99.90
2019-03-18T19:11:11.585Z,99.90
2019-03-18T19:14:16.375Z,99.90
2019-03-18T19:17:21.083Z,99.90
2019-03-18T19:20:25.820Z,99.90
2019-03-18T19:23:37.517Z,99.90
2019-03-18T19:26:36.715Z,99.90
2019-03-18T19:29:41.443Z,99.90
2019-03-18T19:32:46.190Z,99.90
2019-03-18T19:35:50.622Z,99.90
2019-03-18T19:38:55.331Z,99.90
2019-03-18T19:42:00.071Z,99.90
2019-03-18T19:45:06.371Z,99.90
2019-03-18T19:48:11.055Z,99.90
2019-03-18T19:51:15.488Z,99.90
2019-03-18T19:54:20.210Z,99.90
2019-03-18T19:57:24.940Z,99.90
2019-03-18T20:00:30.779Z,99.90
2019-03-18T20:03:37.639Z,99.90
2019-03-18T20:06:41.682Z,99.90
2019-03-18T20:09:46.128Z,99.90
2019-03-18T20:12:50.855Z,99.90
2019-03-18T20:15:55.281Z,99.90
2019-03-18T20:19:00.000Z,99.90
2019-03-18T20:22:04.832Z,99.90
2019-03-18T20:25:12.028Z,99.90
2019-03-18T20:28:16.752Z,99.90
2019-03-18T20:31:25.785Z,99.90
2019-03-18T20:34:27.633Z,99.90
2019-03-18T20:37:32.076Z,99.90
2019-03-18T20:40:36.569Z,99.90
2019-03-18T20:43:41.030Z,99.90
2019-03-18T20:46:45.750Z,99.90
2019-03-18T20:49:50.225Z,99.90
2019-03-18T20:52:54.909Z,99.90
2019-03-18T20:55:59.680Z,99.90
2019-03-18T20:59:04.386Z,99.90
2019-03-18T21:02:09.199Z,99.90
2019-03-18T21:05:13.866Z,99.90
2019-03-18T21:08:18.462Z,99.90
2019-03-18T21:11:23.059Z,99.90
2019-03-18T21:14:28.288Z,99.90
2019-03-18T21:17:33.068Z,99.90
2019-03-18T21:20:39.471Z,99.90
2019-03-18T21:23:44.432Z,99.90
2019-03-18T21:26:49.318Z,99.90
2019-03-18T21:29:54.140Z,99.90
2019-03-18T21:32:58.684Z,99.90
2019-03-18T21:36:03.490Z,99.90
2019-03-18T21:39:08.993Z,99.90
2019-03-18T21:42:13.479Z,99.90
2019-03-18T21:45:24.881Z,99.90
2019-03-18T21:48:29.830Z,99.90
2019-03-18T21:51:34.318Z,99.90
2019-03-18T21:54:38.818Z,99.90
2019-03-18T21:57:43.337Z,99.90
2019-03-18T22:00:47.879Z,99.90
2019-03-18T22:03:52.437Z,99.90
2019-03-18T22:06:57.279Z,99.90
2019-03-18T22:10:01.725Z,99.90
2019-03-18T22:13:06.253Z,99.90
2019-03-18T22:16:10.823Z,99.90
2019-03-18T22:19:15.875Z,99.90
2019-03-18T22:22:20.377Z,99.90
2019-03-18T22:25:24.840Z,99.90
2019-03-18T22:28:29.319Z,99.90
2019-03-18T22:31:33.799Z,99.90
2019-03-18T22:34:38.255Z,99.90
2019-03-18T22:37:43.754Z,99.90
2019-03-18T22:40:48.495Z,99.90
2019-03-18T22:43:53.546Z,99.90
2019-03-18T22:46:58.166Z,99.90
2019-03-18T22:50:02.638Z,99.90
2019-03-18T22:53:07.098Z,99.90
2019-03-18T22:56:12.189Z,99.90
2019-03-18T22:59:16.621Z,99.90
2019-03-18T23:02:21.804Z,99.90
2019-03-18T23:05:26.295Z,99.90
2019-03-18T23:08:31.076Z,99.90
2019-03-18T23:11:35.797Z,99.90
2019-03-18T23:14:40.277Z,99.90
2019-03-18T23:17:44.735Z,99.90
2019-03-18T23:20:49.576Z,99.90
2019-03-18T23:23:54.404Z,99.90
2019-03-18T23:26:58.891Z,99.90
2019-03-18T23:30:03.874Z,99.90
2019-03-18T23:33:08.423Z,99.90
2019-03-18T23:36:13.224Z,99.90
2019-03-18T23:39:17.703Z,99.90
2019-03-18T23:42:22.193Z,99.90
2019-03-18T23:45:26.673Z,99.90
2019-03-18T23:48:31.164Z,99.90
2019-03-18T23:51:35.613Z,99.90
2019-03-18T23:54:40.384Z,99.90
2019-03-18T23:57:44.877Z,99.90
